sensor_id;sensor_type;location;lat;lon;timestamp;pressure;altitude;pressure_sealevel;temperature;humidity
42945;BME280;28584;42.636;23.294;2023-03-15T00:01:59;159465.63;;;3.42;80.97
42945;BME280;28584;42.636;23.294;2023-03-15T00:04:25;159421.81;;;3.25;84.61
42945;BME280;28584;42.636;23.294;2023-03-15T00:06:50;159419.16;;;3.24;83.26
42945;BME280;28584;42.636;23.294;2023-03-15T00:09:16;159407.22;;;3.20;82.52
42945;BME280;28584;42.636;23.294;2023-03-15T00:11:41;159413.84;;;3.22;84.60
42945;BME280;28584;42.636;23.294;2023-03-15T00:14:07;159444.38;;;3.34;83.94
42945;BME280;28584;42.636;23.294;2023-03-15T00:16:32;159443.03;;;3.33;82.60
42945;BME280;28584;42.636;23.294;2023-03-15T00:18:58;159452.38;;;3.37;82.59
42945;BME280;28584;42.636;23.294;2023-03-15T00:21:23;159449.66;;;3.36;84.18
42945;BME280;28584;42.636;23.294;2023-03-15T00:23:49;159453.66;;;3.37;85.82
42945;BME280;28584;42.636;23.294;2023-03-15T00:26:14;159461.63;;;3.40;85.56
42945;BME280;28584;42.636;23.294;2023-03-15T00:28:40;159473.59;;;3.45;85.05
42945;BME280;28584;42.636;23.294;2023-03-15T00:31:17;159502.81;;;3.56;83.53
42945;BME280;28584;42.636;23.294;2023-03-15T00:33:43;159525.41;;;3.64;82.79
42945;BME280;28584;42.636;23.294;2023-03-15T00:36:10;159532.03;;;3.67;83.52
42945;BME280;28584;42.636;23.294;2023-03-15T00:38:37;159520.06;;;3.62;82.97
42945;BME280;28584;42.636;23.294;2023-03-15T00:41:08;159538.72;;;3.69;83.81
42945;BME280;28584;42.636;23.294;2023-03-15T00:43:34;159517.44;;;3.61;85.15
42945;BME280;28584;42.636;23.294;2023-03-15T00:45:59;159528.03;;;3.65;86.31
42945;BME280;28584;42.636;23.294;2023-03-15T00:48:25;159521.41;;;3.63;87.50
42945;BME280;28584;42.636;23.294;2023-03-15T00:50:51;159528.03;;;3.65;87.27
42945;BME280;28584;42.636;23.294;2023-03-15T00:53:16;159522.75;;;3.63;86.78
42945;BME280;28584;42.636;23.294;2023-03-15T00:55:41;159517.44;;;3.61;85.57
42945;BME280;28584;42.636;23.294;2023-03-15T00:58:07;159536.03;;;3.68;84.30
42945;BME280;28584;42.636;23.294;2023-03-15T01:00:33;159550.63;;;3.74;81.81
42945;BME280;28584;42.636;23.294;2023-03-15T01:02:58;159570.56;;;3.81;80.66
42945;BME280;28584;42.636;23.294;2023-03-15T01:05:24;159594.53;;;3.90;78.17
42945;BME280;28584;42.636;23.294;2023-03-15T01:07:51;159599.81;;;3.92;76.37
42945;BME280;28584;42.636;23.294;2023-03-15T01:10:18;159597.16;;;3.91;74.64
42945;BME280;28584;42.636;23.294;2023-03-15T01:12:44;159618.41;;;3.99;78.48
42945;BME280;28584;42.636;23.294;2023-03-15T01:15:12;159625.03;;;4.02;81.22
42945;BME280;28584;42.636;23.294;2023-03-15T01:17:37;159615.75;;;3.98;82.95
42945;BME280;28584;42.636;23.294;2023-03-15T01:20:03;159597.16;;;3.91;85.28
42945;BME280;28584;42.636;23.294;2023-03-15T01:22:29;159597.16;;;3.91;84.21
42945;BME280;28584;42.636;23.294;2023-03-15T01:24:55;159597.16;;;3.91;81.31
42945;BME280;28584;42.636;23.294;2023-03-15T01:27:20;159582.53;;;3.86;79.45
42945;BME280;28584;42.636;23.294;2023-03-15T01:29:46;159583.84;;;3.86;79.14
42945;BME280;28584;42.636;23.294;2023-03-15T01:32:11;159583.84;;;3.86;77.55
42945;BME280;28584;42.636;23.294;2023-03-15T01:34:36;159601.16;;;3.93;78.70
42945;BME280;28584;42.636;23.294;2023-03-15T01:37:03;159583.84;;;3.86;81.10
42945;BME280;28584;42.636;23.294;2023-03-15T01:39:29;159589.19;;;3.88;82.77
42945;BME280;28584;42.636;23.294;2023-03-15T01:41:55;159522.75;;;3.63;91.97
42945;BME280;28584;42.636;23.294;2023-03-15T01:44:20;159533.38;;;3.67;88.98
42945;BME280;28584;42.636;23.294;2023-03-15T01:46:46;159504.16;;;3.56;92.94
42945;BME280;28584;42.636;23.294;2023-03-15T01:49:27;159493.53;;;3.52;93.05
42945;BME280;28584;42.636;23.294;2023-03-15T01:51:59;159490.84;;;3.51;90.62
42945;BME280;28584;42.636;23.294;2023-03-15T01:54:30;159501.47;;;3.55;88.60
42945;BME280;28584;42.636;23.294;2023-03-15T01:57:05;159485.56;;;3.49;89.41
42945;BME280;28584;42.636;23.294;2023-03-15T01:59:35;159493.53;;;3.52;88.78
42945;BME280;28584;42.636;23.294;2023-03-15T02:02:03;159498.84;;;3.54;86.05
42945;BME280;28584;42.636;23.294;2023-03-15T02:04:35;159506.81;;;3.57;87.11
42945;BME280;28584;42.636;23.294;2023-03-15T02:07:02;159522.75;;;3.63;85.08
42945;BME280;28584;42.636;23.294;2023-03-15T02:09:41;159528.03;;;3.65;82.46
42945;BME280;28584;42.636;23.294;2023-03-15T02:12:09;159517.44;;;3.61;89.36
42945;BME280;28584;42.636;23.294;2023-03-15T02:14:35;159508.16;;;3.58;94.83
42945;BME280;28584;42.636;23.294;2023-03-15T02:17:01;159474.94;;;3.45;99.20
42945;BME280;28584;42.636;23.294;2023-03-15T02:19:49;159474.94;;;3.45;97.91
42945;BME280;28584;42.636;23.294;2023-03-15T02:22:33;159461.63;;;3.40;96.59
42945;BME280;28584;42.636;23.294;2023-03-15T02:25:31;159451.03;;;3.36;99.54
42945;BME280;28584;42.636;23.294;2023-03-15T02:28:00;159396.59;;;3.16;100.00
42945;BME280;28584;42.636;23.294;2023-03-15T02:30:26;159408.50;;;3.20;100.00
42945;BME280;28584;42.636;23.294;2023-03-15T02:32:51;159411.19;;;3.21;99.71
42945;BME280;28584;42.636;23.294;2023-03-15T02:35:26;159443.03;;;3.33;100.00
42945;BME280;28584;42.636;23.294;2023-03-15T02:37:51;159435.06;;;3.30;99.98
42945;BME280;28584;42.636;23.294;2023-03-15T02:40:20;159396.59;;;3.16;96.91
42945;BME280;28584;42.636;23.294;2023-03-15T02:42:47;159401.88;;;3.18;95.69
42945;BME280;28584;42.636;23.294;2023-03-15T02:45:16;159407.22;;;3.20;96.23
42945;BME280;28584;42.636;23.294;2023-03-15T02:47:43;159404.50;;;3.19;97.76
42945;BME280;28584;42.636;23.294;2023-03-15T02:50:09;159363.34;;;3.03;100.00
42945;BME280;28584;42.636;23.294;2023-03-15T02:52:35;159346.09;;;2.97;100.00
42945;BME280;28584;42.636;23.294;2023-03-15T02:55:00;159323.53;;;2.88;100.00
42945;BME280;28584;42.636;23.294;2023-03-15T02:57:26;159266.44;;;2.66;100.00
42945;BME280;28584;42.636;23.294;2023-03-15T02:59:52;159245.22;;;2.58;100.00
42945;BME280;28584;42.636;23.294;2023-03-15T03:02:19;159206.72;;;2.44;100.00
42945;BME280;28584;42.636;23.294;2023-03-15T03:04:44;159202.72;;;2.42;100.00
42945;BME280;28584;42.636;23.294;2023-03-15T03:07:10;159176.22;;;2.32;100.00
42945;BME280;28584;42.636;23.294;2023-03-15T03:09:35;159145.69;;;2.21;100.00
42945;BME280;28584;42.636;23.294;2023-03-15T03:12:00;159107.22;;;2.06;100.00
42945;BME280;28584;42.636;23.294;2023-03-15T03:14:26;159096.59;;;2.02;100.00
42945;BME280;28584;42.636;23.294;2023-03-15T03:16:51;159120.44;;;2.11;100.00
42945;BME280;28584;42.636;23.294;2023-03-15T03:19:17;159123.13;;;2.12;100.00
42945;BME280;28584;42.636;23.294;2023-03-15T03:21:42;159150.97;;;2.23;100.00
42945;BME280;28584;42.636;23.294;2023-03-15T03:24:09;159197.44;;;2.40;100.00
42945;BME280;28584;42.636;23.294;2023-03-15T03:26:34;159230.63;;;2.53;100.00
42945;BME280;28584;42.636;23.294;2023-03-15T03:29:03;159247.84;;;2.59;100.00
42945;BME280;28584;42.636;23.294;2023-03-15T03:31:30;159278.41;;;2.71;100.00
42945;BME280;28584;42.636;23.294;2023-03-15T03:33:58;159310.28;;;2.83;100.00
42945;BME280;28584;42.636;23.294;2023-03-15T03:36:24;159342.13;;;2.95;100.00
42945;BME280;28584;42.636;23.294;2023-03-15T03:38:50;159352.72;;;2.99;100.00
42945;BME280;28584;42.636;23.294;2023-03-15T03:41:15;159363.34;;;3.03;100.00
42945;BME280;28584;42.636;23.294;2023-03-15T03:43:41;159408.50;;;3.20;100.00
42945;BME280;28584;42.636;23.294;2023-03-15T03:46:08;159411.19;;;3.21;100.00
42945;BME280;28584;42.636;23.294;2023-03-15T03:48:33;159420.47;;;3.25;99.16
42945;BME280;28584;42.636;23.294;2023-03-15T03:50:59;159449.66;;;3.36;97.34
42945;BME280;28584;42.636;23.294;2023-03-15T03:53:24;159480.22;;;3.47;94.98
42945;BME280;28584;42.636;23.294;2023-03-15T03:55:50;159506.81;;;3.57;92.24
42945;BME280;28584;42.636;23.294;2023-03-15T03:58:16;159514.78;;;3.60;89.84
42945;BME280;28584;42.636;23.294;2023-03-15T04:00:41;159512.16;;;3.59;94.14
42945;BME280;28584;42.636;23.294;2023-03-15T04:03:07;159524.06;;;3.64;97.27
42945;BME280;28584;42.636;23.294;2023-03-15T04:05:34;159530.75;;;3.66;100.00
42945;BME280;28584;42.636;23.294;2023-03-15T04:07:59;159484.22;;;3.49;99.47
42945;BME280;28584;42.636;23.294;2023-03-15T04:10:24;159472.25;;;3.44;99.90
42945;BME280;28584;42.636;23.294;2023-03-15T04:12:54;159473.59;;;3.45;100.00
42945;BME280;28584;42.636;23.294;2023-03-15T04:15:20;159492.19;;;3.52;95.20
42945;BME280;28584;42.636;23.294;2023-03-15T04:17:47;159505.47;;;3.57;95.12
42945;BME280;28584;42.636;23.294;2023-03-15T04:20:13;159513.44;;;3.60;91.38
42945;BME280;28584;42.636;23.294;2023-03-15T04:22:39;159516.13;;;3.61;89.80
42945;BME280;28584;42.636;23.294;2023-03-15T04:25:05;159516.13;;;3.61;89.77
42945;BME280;28584;42.636;23.294;2023-03-15T04:27:31;159514.78;;;3.60;91.67
42945;BME280;28584;42.636;23.294;2023-03-15T04:29:56;159525.41;;;3.64;98.88
42945;BME280;28584;42.636;23.294;2023-03-15T04:32:22;159542.66;;;3.71;97.76
42945;BME280;28584;42.636;23.294;2023-03-15T04:34:47;159544.00;;;3.71;92.67
42945;BME280;28584;42.636;23.294;2023-03-15T04:37:17;159570.56;;;3.81;93.47
42945;BME280;28584;42.636;23.294;2023-03-15T04:39:42;159563.94;;;3.79;94.40
42945;BME280;28584;42.636;23.294;2023-03-15T04:42:08;159525.41;;;3.64;90.31
42945;BME280;28584;42.636;23.294;2023-03-15T04:44:35;159488.22;;;3.50;99.22
42945;BME280;28584;42.636;23.294;2023-03-15T04:47:00;159464.28;;;3.41;100.00
42945;BME280;28584;42.636;23.294;2023-03-15T04:49:26;159453.66;;;3.37;100.00
42945;BME280;28584;42.636;23.294;2023-03-15T04:51:51;159465.63;;;3.42;100.00
42945;BME280;28584;42.636;23.294;2023-03-15T04:54:17;159461.63;;;3.40;100.00
42945;BME280;28584;42.636;23.294;2023-03-15T04:56:42;159498.84;;;3.54;100.00
42945;BME280;28584;42.636;23.294;2023-03-15T04:59:08;159521.41;;;3.63;100.00
42945;BME280;28584;42.636;23.294;2023-03-15T05:01:34;159520.06;;;3.62;100.00
42945;BME280;28584;42.636;23.294;2023-03-15T05:04:00;159501.47;;;3.55;100.00
42945;BME280;28584;42.636;23.294;2023-03-15T05:06:25;159472.25;;;3.44;100.00
42945;BME280;28584;42.636;23.294;2023-03-15T05:08:51;159462.97;;;3.41;100.00
42945;BME280;28584;42.636;23.294;2023-03-15T05:11:16;159509.44;;;3.58;100.00
42945;BME280;28584;42.636;23.294;2023-03-15T05:13:42;159549.34;;;3.73;100.00
42945;BME280;28584;42.636;23.294;2023-03-15T05:16:07;159603.78;;;3.94;100.00
42945;BME280;28584;42.636;23.294;2023-03-15T05:18:32;159662.25;;;4.16;100.00
42945;BME280;28584;42.636;23.294;2023-03-15T05:20:58;159686.19;;;4.25;100.00
42945;BME280;28584;42.636;23.294;2023-03-15T05:23:23;159675.56;;;4.21;100.00
42945;BME280;28584;42.636;23.294;2023-03-15T05:25:53;159648.97;;;4.11;100.00
42945;BME280;28584;42.636;23.294;2023-03-15T05:28:20;159659.59;;;4.15;100.00
42945;BME280;28584;42.636;23.294;2023-03-15T05:30:46;159623.75;;;4.01;100.00
42945;BME280;28584;42.636;23.294;2023-03-15T05:33:12;159659.59;;;4.15;100.00
42945;BME280;28584;42.636;23.294;2023-03-15T05:35:38;159730.03;;;4.41;100.00
42945;BME280;28584;42.636;23.294;2023-03-15T05:38:03;159755.34;;;4.51;100.00
42945;BME280;28584;42.636;23.294;2023-03-15T05:40:30;159763.28;;;4.54;100.00
42945;BME280;28584;42.636;23.294;2023-03-15T05:42:57;159771.25;;;4.57;100.00
42945;BME280;28584;42.636;23.294;2023-03-15T05:45:22;159775.25;;;4.58;100.00
42945;BME280;28584;42.636;23.294;2023-03-15T05:47:48;159789.88;;;4.64;100.00
42945;BME280;28584;42.636;23.294;2023-03-15T05:50:13;159703.44;;;4.31;100.00
42945;BME280;28584;42.636;23.294;2023-03-15T05:52:39;159754.00;;;4.50;100.00
42945;BME280;28584;42.636;23.294;2023-03-15T05:55:04;159792.56;;;4.65;96.97
42945;BME280;28584;42.636;23.294;2023-03-15T05:57:30;159836.44;;;4.81;95.04
42945;BME280;28584;42.636;23.294;2023-03-15T05:59:55;159921.53;;;5.13;93.67
42945;BME280;28584;42.636;23.294;2023-03-15T06:02:21;160018.66;;;5.50;91.18
42945;BME280;28584;42.636;23.294;2023-03-15T06:04:46;160099.84;;;5.81;89.58
42945;BME280;28584;42.636;23.294;2023-03-15T06:07:12;160150.47;;;6.00;87.13
42945;BME280;28584;42.636;23.294;2023-03-15T06:09:37;160283.56;;;6.50;81.06
42945;BME280;28584;42.636;23.294;2023-03-15T06:12:03;160455.44;;;7.14;72.81
42945;BME280;28584;42.636;23.294;2023-03-15T06:14:28;160542.00;;;7.47;68.20
42945;BME280;28584;42.636;23.294;2023-03-15T06:16:54;160606.00;;;7.71;64.73
42945;BME280;28584;42.636;23.294;2023-03-15T06:19:20;160630.00;;;7.80;61.96
42945;BME280;28584;42.636;23.294;2023-03-15T06:21:46;160694.00;;;8.04;61.05
42945;BME280;28584;42.636;23.294;2023-03-15T06:24:11;160682.00;;;7.99;59.56
42945;BME280;28584;42.636;23.294;2023-03-15T06:26:37;160776.72;;;8.35;57.81
42945;BME280;28584;42.636;23.294;2023-03-15T06:29:02;160787.38;;;8.39;55.74
42945;BME280;28584;42.636;23.294;2023-03-15T06:31:28;160802.06;;;8.44;56.54
42945;BME280;28584;42.636;23.294;2023-03-15T06:33:53;160840.75;;;8.59;57.13
42945;BME280;28584;42.636;23.294;2023-03-15T06:36:18;160790.03;;;8.40;56.43
42945;BME280;28584;42.636;23.294;2023-03-15T06:38:44;160808.72;;;8.47;55.42
42945;BME280;28584;42.636;23.294;2023-03-15T06:41:09;160795.41;;;8.42;55.37
42945;BME280;28584;42.636;23.294;2023-03-15T06:43:36;160820.72;;;8.52;54.20
42945;BME280;28584;42.636;23.294;2023-03-15T06:46:02;160880.75;;;8.74;52.98
42945;BME280;28584;42.636;23.294;2023-03-15T06:48:27;161018.22;;;9.26;52.89
42945;BME280;28584;42.636;23.294;2023-03-15T06:50:53;161193.06;;;9.91;51.56
42945;BME280;28584;42.636;23.294;2023-03-15T06:53:18;161301.28;;;10.32;49.99
42945;BME280;28584;42.636;23.294;2023-03-15T06:55:44;161298.63;;;10.31;49.94
42945;BME280;28584;42.636;23.294;2023-03-15T06:58:10;161194.41;;;9.92;49.60
42945;BME280;28584;42.636;23.294;2023-03-15T07:00:36;161074.28;;;9.47;50.20
42945;BME280;28584;42.636;23.294;2023-03-15T07:03:01;161126.31;;;9.66;50.71
42945;BME280;28584;42.636;23.294;2023-03-15T07:05:27;161187.72;;;9.89;50.29
42945;BME280;28584;42.636;23.294;2023-03-15T07:07:52;161149.03;;;9.75;49.50
42945;BME280;28584;42.636;23.294;2023-03-15T07:10:18;161393.50;;;10.66;49.60
42945;BME280;28584;42.636;23.294;2023-03-15T07:12:43;161112.94;;;9.61;49.60
42945;BME280;28584;42.636;23.294;2023-03-15T07:15:09;160914.09;;;8.87;50.74
42945;BME280;28584;42.636;23.294;2023-03-15T07:17:34;161074.28;;;9.47;50.66
42945;BME280;28584;42.636;23.294;2023-03-15T07:20:00;161286.59;;;10.26;48.97
42945;BME280;28584;42.636;23.294;2023-03-15T07:22:25;161405.53;;;10.71;47.98
42945;BME280;28584;42.636;23.294;2023-03-15T07:24:51;161667.53;;;11.69;46.46
42945;BME280;28584;42.636;23.294;2023-03-15T07:27:16;161250.56;;;10.13;47.81
42945;BME280;28584;42.636;23.294;2023-03-15T07:29:42;161275.91;;;10.22;48.77
42945;BME280;28584;42.636;23.294;2023-03-15T07:32:07;161373.44;;;10.59;48.43
42945;BME280;28584;42.636;23.294;2023-03-15T07:34:33;161436.22;;;10.82;47.84
42945;BME280;28584;42.636;23.294;2023-03-15T07:36:58;161408.19;;;10.72;47.01
42945;BME280;28584;42.636;23.294;2023-03-15T07:39:23;161545.81;;;11.23;46.65
42945;BME280;28584;42.636;23.294;2023-03-15T07:41:51;161652.81;;;11.64;44.69
42945;BME280;28584;42.636;23.294;2023-03-15T07:44:17;161781.22;;;12.12;44.46
42945;BME280;28584;42.636;23.294;2023-03-15T07:46:42;161904.28;;;12.58;42.99
42945;BME280;28584;42.636;23.294;2023-03-15T07:49:08;161920.34;;;12.64;42.94
42945;BME280;28584;42.636;23.294;2023-03-15T07:51:33;162014.06;;;12.99;42.91
42945;BME280;28584;42.636;23.294;2023-03-15T07:54:26;161433.56;;;10.81;44.31
42945;BME280;28584;42.636;23.294;2023-03-15T07:56:53;161210.41;;;9.98;46.91
42945;BME280;28584;42.636;23.294;2023-03-15T07:59:18;161438.91;;;10.83;46.60
42945;BME280;28584;42.636;23.294;2023-03-15T08:01:44;161527.09;;;11.16;45.77
42945;BME280;28584;42.636;23.294;2023-03-15T08:04:09;161626.03;;;11.54;45.15
42945;BME280;28584;42.636;23.294;2023-03-15T08:06:35;161806.63;;;12.21;43.49
42945;BME280;28584;42.636;23.294;2023-03-15T08:09:00;161543.16;;;11.23;44.33
42945;BME280;28584;42.636;23.294;2023-03-15T08:11:28;161532.47;;;11.18;45.64
42945;BME280;28584;42.636;23.294;2023-03-15T08:13:53;161324.00;;;10.40;46.41
42945;BME280;28584;42.636;23.294;2023-03-15T08:16:19;161626.03;;;11.54;44.92
42945;BME280;28584;42.636;23.294;2023-03-15T08:18:44;161658.16;;;11.66;43.96
42945;BME280;28584;42.636;23.294;2023-03-15T08:21:10;161960.47;;;12.79;43.00
42945;BME280;28584;42.636;23.294;2023-03-15T08:23:36;161989.91;;;12.90;42.73
42945;BME280;28584;42.636;23.294;2023-03-15T08:26:01;161805.25;;;12.21;42.75
42945;BME280;28584;42.636;23.294;2023-03-15T08:28:26;161743.78;;;11.98;42.54
42945;BME280;28584;42.636;23.294;2023-03-15T08:30:52;162022.09;;;13.02;42.30
42945;BME280;28584;42.636;23.294;2023-03-15T08:33:17;162083.66;;;13.25;41.53
42945;BME280;28584;42.636;23.294;2023-03-15T08:35:42;161769.16;;;12.07;42.58
42945;BME280;28584;42.636;23.294;2023-03-15T08:38:08;161577.91;;;11.36;44.38
42945;BME280;28584;42.636;23.294;2023-03-15T08:40:33;161583.22;;;11.38;43.88
42945;BME280;28584;42.636;23.294;2023-03-15T08:42:59;161766.50;;;12.06;43.79
42945;BME280;28584;42.636;23.294;2023-03-15T08:45:25;161840.06;;;12.34;43.45
42945;BME280;28584;42.636;23.294;2023-03-15T08:47:57;161939.06;;;12.71;43.08
42945;BME280;28584;42.636;23.294;2023-03-15T08:50:24;162150.63;;;13.50;42.09
42945;BME280;28584;42.636;23.294;2023-03-15T08:52:50;161993.91;;;12.91;41.50
42945;BME280;28584;42.636;23.294;2023-03-15T08:55:15;161968.50;;;12.82;41.84
42945;BME280;28584;42.636;23.294;2023-03-15T08:57:42;161833.38;;;12.31;41.96
42945;BME280;28584;42.636;23.294;2023-03-15T09:00:08;161643.38;;;11.60;43.67
42945;BME280;28584;42.636;23.294;2023-03-15T09:02:34;161754.47;;;12.02;43.29
42945;BME280;28584;42.636;23.294;2023-03-15T09:05:00;161912.31;;;12.61;43.00
42945;BME280;28584;42.636;23.294;2023-03-15T09:07:25;162008.63;;;12.97;42.40
42945;BME280;28584;42.636;23.294;2023-03-15T09:09:51;162158.63;;;13.53;40.95
42945;BME280;28584;42.636;23.294;2023-03-15T09:12:19;162193.44;;;13.66;40.79
42945;BME280;28584;42.636;23.294;2023-03-15T09:14:45;162083.66;;;13.25;40.85
42945;BME280;28584;42.636;23.294;2023-03-15T09:17:10;161925.66;;;12.66;41.87
42945;BME280;28584;42.636;23.294;2023-03-15T09:19:36;161888.19;;;12.52;42.61
42945;BME280;28584;42.636;23.294;2023-03-15T09:22:02;161914.97;;;12.62;43.04
42945;BME280;28584;42.636;23.294;2023-03-15T09:24:27;161886.91;;;12.51;42.50
42945;BME280;28584;42.636;23.294;2023-03-15T09:26:52;161834.69;;;12.32;42.81
42945;BME280;28584;42.636;23.294;2023-03-15T09:29:18;161865.47;;;12.43;42.75
42945;BME280;28584;42.636;23.294;2023-03-15T09:31:43;161965.84;;;12.81;42.74
42945;BME280;28584;42.636;23.294;2023-03-15T09:34:09;162118.47;;;13.38;42.07
42945;BME280;28584;42.636;23.294;2023-03-15T09:36:34;161715.66;;;11.87;42.88
42945;BME280;28584;42.636;23.294;2023-03-15T09:39:00;161717.03;;;11.88;44.63
42945;BME280;28584;42.636;23.294;2023-03-15T09:46:51;161836.03;;;12.32;43.38
42945;BME280;28584;42.636;23.294;2023-03-15T09:49:39;161893.56;;;12.54;42.93
42945;BME280;28584;42.636;23.294;2023-03-15T09:55:04;161898.91;;;12.56;42.41
42945;BME280;28584;42.636;23.294;2023-03-15T09:58:00;161872.13;;;12.46;42.82
42945;BME280;28584;42.636;23.294;2023-03-15T10:00:40;161790.56;;;12.15;43.00
42945;BME280;28584;42.636;23.294;2023-03-15T10:03:17;161858.78;;;12.41;43.38
42945;BME280;28584;42.636;23.294;2023-03-15T10:05:46;161818.66;;;12.26;43.81
42945;BME280;28584;42.636;23.294;2023-03-15T10:08:17;161634.06;;;11.57;44.36
42945;BME280;28584;42.636;23.294;2023-03-15T10:10:49;161644.75;;;11.61;45.17
42945;BME280;28584;42.636;23.294;2023-03-15T10:20:59;162052.84;;;13.13;42.82
42945;BME280;28584;42.636;23.294;2023-03-15T10:23:44;162143.88;;;13.47;42.18
42945;BME280;28584;42.636;23.294;2023-03-15T10:26:14;162139.88;;;13.46;41.90
42945;BME280;28584;42.636;23.294;2023-03-15T10:28:43;162180.06;;;13.61;41.56
42945;BME280;28584;42.636;23.294;2023-03-15T10:31:12;162022.09;;;13.02;42.51
42945;BME280;28584;42.636;23.294;2023-03-15T10:33:38;162022.09;;;13.02;42.32
42945;BME280;28584;42.636;23.294;2023-03-15T10:36:33;161913.63;;;12.61;43.36
42945;BME280;28584;42.636;23.294;2023-03-15T10:38:59;161770.47;;;12.08;44.28
42945;BME280;28584;42.636;23.294;2023-03-15T10:41:40;161628.69;;;11.55;45.06
42945;BME280;28584;42.636;23.294;2023-03-15T10:44:11;161604.66;;;11.46;45.46
42945;BME280;28584;42.636;23.294;2023-03-15T10:46:37;161656.84;;;11.65;45.57
42945;BME280;28584;42.636;23.294;2023-03-15T10:49:14;161584.59;;;11.38;45.75
42945;BME280;28584;42.636;23.294;2023-03-15T10:51:47;161567.19;;;11.32;46.03
42945;BME280;28584;42.636;23.294;2023-03-15T10:54:26;161577.91;;;11.36;46.16
42945;BME280;28584;42.636;23.294;2023-03-15T10:57:14;161581.94;;;11.37;46.12
42945;BME280;28584;42.636;23.294;2023-03-15T10:59:58;161575.22;;;11.35;46.25
42945;BME280;28584;42.636;23.294;2023-03-15T11:02:24;161591.25;;;11.41;46.19
42945;BME280;28584;42.636;23.294;2023-03-15T11:07:26;161607.31;;;11.47;45.89
42945;BME280;28584;42.636;23.294;2023-03-15T11:09:53;161569.88;;;11.33;46.04
42945;BME280;28584;42.636;23.294;2023-03-15T11:12:25;161553.84;;;11.27;46.15
42945;BME280;28584;42.636;23.294;2023-03-15T11:15:14;161555.19;;;11.27;47.02
42945;BME280;28584;42.636;23.294;2023-03-15T11:17:46;161537.78;;;11.20;46.88
42945;BME280;28584;42.636;23.294;2023-03-15T11:20:26;161536.47;;;11.20;47.28
42945;BME280;28584;42.636;23.294;2023-03-15T11:22:55;161577.91;;;11.36;48.42
42945;BME280;28584;42.636;23.294;2023-03-15T11:25:28;161592.63;;;11.41;50.24
42945;BME280;28584;42.636;23.294;2023-03-15T11:27:55;161487.03;;;11.01;49.49
42945;BME280;28584;42.636;23.294;2023-03-15T11:30:28;161524.44;;;11.15;47.58
42945;BME280;28584;42.636;23.294;2023-03-15T11:32:54;161468.31;;;10.94;47.69
42945;BME280;28584;42.636;23.294;2023-03-15T11:35:30;161430.91;;;10.80;48.73
42945;BME280;28584;42.636;23.294;2023-03-15T11:38:02;161112.94;;;9.61;52.08
42945;BME280;28584;42.636;23.294;2023-03-15T11:40:37;161214.41;;;9.99;51.68
42945;BME280;28584;42.636;23.294;2023-03-15T11:43:19;161165.00;;;9.81;51.72
42945;BME280;28584;42.636;23.294;2023-03-15T11:45:51;161219.78;;;10.01;51.81
42945;BME280;28584;42.636;23.294;2023-03-15T11:48:25;161418.88;;;10.76;51.28
42945;BME280;28584;42.636;23.294;2023-03-15T11:50:58;161438.91;;;10.83;49.68
42945;BME280;28584;42.636;23.294;2023-03-15T11:53:29;161311.97;;;10.36;50.65
42945;BME280;28584;42.636;23.294;2023-03-15T11:56:24;161413.50;;;10.74;51.42
42945;BME280;28584;42.636;23.294;2023-03-15T12:01:28;161310.66;;;10.35;53.43
42945;BME280;28584;42.636;23.294;2023-03-15T12:06:41;161094.25;;;9.54;55.83
42945;BME280;28584;42.636;23.294;2023-03-15T12:11:57;161230.47;;;10.05;54.32
42945;BME280;28584;42.636;23.294;2023-03-15T12:19:41;161202.44;;;9.95;55.76
42945;BME280;28584;42.636;23.294;2023-03-15T12:22:14;161229.09;;;10.05;55.73
42945;BME280;28584;42.636;23.294;2023-03-15T12:24:43;161235.88;;;10.07;55.71
42945;BME280;28584;42.636;23.294;2023-03-15T12:27:15;161195.72;;;9.92;56.84
42945;BME280;28584;42.636;23.294;2023-03-15T12:29:46;161153.03;;;9.76;57.19
42945;BME280;28584;42.636;23.294;2023-03-15T12:32:15;161091.59;;;9.53;57.76
42945;BME280;28584;42.636;23.294;2023-03-15T12:34:43;161091.59;;;9.53;57.77
42945;BME280;28584;42.636;23.294;2023-03-15T12:37:18;161139.66;;;9.71;57.50
42945;BME280;28584;42.636;23.294;2023-03-15T12:45:32;161157.03;;;9.78;57.37
42945;BME280;28584;42.636;23.294;2023-03-15T12:55:56;161219.78;;;10.01;56.60
42945;BME280;28584;42.636;23.294;2023-03-15T12:58:34;161281.28;;;10.24;55.68
42945;BME280;28584;42.636;23.294;2023-03-15T13:01:01;161266.53;;;10.19;54.82
42945;BME280;28584;42.636;23.294;2023-03-15T13:03:29;161401.50;;;10.69;53.84
42945;BME280;28584;42.636;23.294;2023-03-15T13:09:08;161527.09;;;11.16;52.44
42945;BME280;28584;42.636;23.294;2023-03-15T13:19:44;161723.69;;;11.90;49.62
42945;BME280;28584;42.636;23.294;2023-03-15T13:22:35;161801.25;;;12.19;48.88
42945;BME280;28584;42.636;23.294;2023-03-15T13:25:18;161869.47;;;12.45;48.14
42945;BME280;28584;42.636;23.294;2023-03-15T13:30:38;161845.44;;;12.36;46.63
42945;BME280;28584;42.636;23.294;2023-03-15T13:35:29;161719.66;;;11.89;47.62
42945;BME280;28584;42.636;23.294;2023-03-15T13:40:45;161709.00;;;11.85;48.20
42945;BME280;28584;42.636;23.294;2023-03-15T13:43:11;161679.56;;;11.74;47.53
42945;BME280;28584;42.636;23.294;2023-03-15T13:45:40;161691.56;;;11.78;47.78
42945;BME280;28584;42.636;23.294;2023-03-15T13:48:06;161658.16;;;11.66;48.10
42945;BME280;28584;42.636;23.294;2023-03-15T13:50:31;161631.34;;;11.56;48.46
42945;BME280;28584;42.636;23.294;2023-03-15T13:52:57;161636.72;;;11.58;48.88
42945;BME280;28584;42.636;23.294;2023-03-15T13:55:22;161535.13;;;11.19;50.40